sensor_id;sensor_type;location;lat;lon;timestamp;pressure;altitude;pressure_sealevel;temperature;humidity
60267;BME280;46125;61.360;-149.532;2022-10-30T00:00:51;96669.88;;;-1.66;36.43
60267;BME280;46125;61.360;-149.532;2022-10-30T00:03:20;96669.02;;;-1.18;36.30
60267;BME280;46125;61.360;-149.532;2022-10-30T00:05:50;96666.68;;;-2.28;35.76
60267;BME280;46125;61.360;-149.532;2022-10-30T00:08:20;96664.54;;;-2.51;35.90
60267;BME280;46125;61.360;-149.532;2022-10-30T00:10:49;96663.64;;;-0.93;34.76
60267;BME280;46125;61.360;-149.532;2022-10-30T00:13:19;96665.49;;;-0.62;33.94
60267;BME280;46125;61.360;-149.532;2022-10-30T00:15:49;96662.21;;;-0.28;32.96
60267;BME280;46125;61.360;-149.532;2022-10-30T00:18:18;96665.66;;;-1.19;35.95
60267;BME280;46125;61.360;-149.532;2022-10-30T00:20:48;96662.14;;;0.15;34.17
60267;BME280;46125;61.360;-149.532;2022-10-30T00:23:16;96665.00;;;-2.07;36.48
60267;BME280;46125;61.360;-149.532;2022-10-30T00:25:44;96661.71;;;-0.59;35.08
60267;BME280;46125;61.360;-149.532;2022-10-30T00:28:13;96664.03;;;-0.13;34.78
60267;BME280;46125;61.360;-149.532;2022-10-30T00:30:42;96656.65;;;0.06;34.29
60267;BME280;46125;61.360;-149.532;2022-10-30T00:33:11;96654.67;;;-0.30;35.44
60267;BME280;46125;61.360;-149.532;2022-10-30T00:35:47;96645.55;;;-0.70;34.75
60267;BME280;46125;61.360;-149.532;2022-10-30T00:38:16;96646.73;;;-0.92;34.42
60267;BME280;46125;61.360;-149.532;2022-10-30T00:40:44;96649.18;;;-0.15;33.65
60267;BME280;46125;61.360;-149.532;2022-10-30T00:43:36;96642.07;;;-0.43;34.40
60267;BME280;46125;61.360;-149.532;2022-10-30T00:46:11;96651.74;;;0.46;33.99
60267;BME280;46125;61.360;-149.532;2022-10-30T00:48:41;96653.28;;;-0.04;34.20
60267;BME280;46125;61.360;-149.532;2022-10-30T00:51:12;96650.31;;;-0.14;35.44
60267;BME280;46125;61.360;-149.532;2022-10-30T00:53:42;96658.75;;;-0.21;34.54
60267;BME280;46125;61.360;-149.532;2022-10-30T00:56:12;96656.69;;;-1.16;35.91
60267;BME280;46125;61.360;-149.532;2022-10-30T00:58:47;96646.63;;;-0.32;35.09
60267;BME280;46125;61.360;-149.532;2022-10-30T01:01:19;96650.68;;;-0.18;34.83
60267;BME280;46125;61.360;-149.532;2022-10-30T01:03:52;96648.16;;;0.32;34.64
60267;BME280;46125;61.360;-149.532;2022-10-30T01:06:22;96643.64;;;-0.71;35.11
60267;BME280;46125;61.360;-149.532;2022-10-30T01:08:53;96641.07;;;0.03;35.46
60267;BME280;46125;61.360;-149.532;2022-10-30T01:11:22;96634.79;;;-0.26;35.85
60267;BME280;46125;61.360;-149.532;2022-10-30T01:13:51;96634.90;;;-0.35;36.06
60267;BME280;46125;61.360;-149.532;2022-10-30T01:16:40;96645.98;;;-1.97;36.19
60267;BME280;46125;61.360;-149.532;2022-10-30T01:19:20;96641.25;;;-0.72;33.95
60267;BME280;46125;61.360;-149.532;2022-10-30T01:22:06;96638.49;;;-0.87;35.63
60267;BME280;46125;61.360;-149.532;2022-10-30T01:24:47;96635.62;;;-0.37;35.92
60267;BME280;46125;61.360;-149.532;2022-10-30T01:27:31;96638.87;;;-0.91;36.81
60267;BME280;46125;61.360;-149.532;2022-10-30T01:30:10;96636.99;;;-0.97;36.19
60267;BME280;46125;61.360;-149.532;2022-10-30T01:32:54;96637.44;;;-0.84;34.18
60267;BME280;46125;61.360;-149.532;2022-10-30T01:35:31;96638.06;;;-1.50;32.64
60267;BME280;46125;61.360;-149.532;2022-10-30T01:38:06;96637.16;;;-1.35;32.09
60267;BME280;46125;61.360;-149.532;2022-10-30T01:40:37;96637.59;;;-0.42;31.70
60267;BME280;46125;61.360;-149.532;2022-10-30T01:43:07;96635.26;;;-0.57;34.13
60267;BME280;46125;61.360;-149.532;2022-10-30T01:45:48;96638.68;;;-0.89;36.64
60267;BME280;46125;61.360;-149.532;2022-10-30T01:48:34;96638.01;;;-0.84;36.31
60267;BME280;46125;61.360;-149.532;2022-10-30T01:51:16;96640.68;;;-0.31;35.92
60267;BME280;46125;61.360;-149.532;2022-10-30T01:53:52;96645.20;;;-1.10;36.18
60267;BME280;46125;61.360;-149.532;2022-10-30T01:56:31;96643.88;;;-0.73;35.19
60267;BME280;46125;61.360;-149.532;2022-10-30T01:59:10;96640.48;;;-0.60;34.45
60267;BME280;46125;61.360;-149.532;2022-10-30T02:01:40;96639.85;;;-0.82;33.01
60267;BME280;46125;61.360;-149.532;2022-10-30T02:04:12;96641.76;;;-0.80;33.29
60267;BME280;46125;61.360;-149.532;2022-10-30T02:06:40;96642.09;;;-0.62;34.17
60267;BME280;46125;61.360;-149.532;2022-10-30T02:09:09;96639.79;;;-0.70;35.13
60267;BME280;46125;61.360;-149.532;2022-10-30T02:11:38;96643.30;;;-2.07;37.71
60267;BME280;46125;61.360;-149.532;2022-10-30T02:14:08;96632.69;;;-1.09;36.30
60267;BME280;46125;61.360;-149.532;2022-10-30T02:16:44;96635.63;;;-0.89;35.99
60267;BME280;46125;61.360;-149.532;2022-10-30T02:19:13;96638.49;;;-1.69;37.44
60267;BME280;46125;61.360;-149.532;2022-10-30T02:21:42;96636.34;;;-2.25;38.30
60267;BME280;46125;61.360;-149.532;2022-10-30T02:24:10;96633.88;;;-2.89;40.11
60267;BME280;46125;61.360;-149.532;2022-10-30T02:26:39;96629.32;;;-1.98;38.05
60267;BME280;46125;61.360;-149.532;2022-10-30T02:29:08;96627.48;;;-2.07;37.89
60267;BME280;46125;61.360;-149.532;2022-10-30T02:31:37;96630.38;;;-1.80;37.26
60267;BME280;46125;61.360;-149.532;2022-10-30T02:34:05;96629.13;;;-1.56;36.93
60267;BME280;46125;61.360;-149.532;2022-10-30T02:36:34;96636.43;;;-1.11;35.31
60267;BME280;46125;61.360;-149.532;2022-10-30T02:39:03;96633.20;;;-1.50;35.63
60267;BME280;46125;61.360;-149.532;2022-10-30T02:41:31;96632.55;;;-1.43;35.89
60267;BME280;46125;61.360;-149.532;2022-10-30T02:44:00;96634.67;;;-1.25;35.90
60267;BME280;46125;61.360;-149.532;2022-10-30T02:46:29;96632.58;;;-1.43;36.36
60267;BME280;46125;61.360;-149.532;2022-10-30T02:48:58;96637.74;;;-1.25;35.38
60267;BME280;46125;61.360;-149.532;2022-10-30T02:51:29;96632.82;;;-1.57;36.61
60267;BME280;46125;61.360;-149.532;2022-10-30T02:53:58;96637.92;;;-1.01;35.70
60267;BME280;46125;61.360;-149.532;2022-10-30T02:56:27;96632.76;;;-1.29;35.37
60267;BME280;46125;61.360;-149.532;2022-10-30T02:58:55;96634.27;;;-0.99;35.02
60267;BME280;46125;61.360;-149.532;2022-10-30T03:01:24;96635.13;;;-0.87;34.25
60267;BME280;46125;61.360;-149.532;2022-10-30T03:03:53;96633.81;;;-1.08;33.17
60267;BME280;46125;61.360;-149.532;2022-10-30T03:06:21;96636.87;;;-1.12;35.32
60267;BME280;46125;61.360;-149.532;2022-10-30T03:08:51;96643.66;;;-2.69;38.34
60267;BME280;46125;61.360;-149.532;2022-10-30T03:11:20;96641.96;;;-1.79;36.03
60267;BME280;46125;61.360;-149.532;2022-10-30T03:13:49;96643.62;;;-2.12;35.39
60267;BME280;46125;61.360;-149.532;2022-10-30T03:16:19;96639.27;;;-1.31;34.68
60267;BME280;46125;61.360;-149.532;2022-10-30T03:18:48;96649.40;;;-2.61;36.45
60267;BME280;46125;61.360;-149.532;2022-10-30T03:21:18;96648.96;;;-2.23;36.79
60267;BME280;46125;61.360;-149.532;2022-10-30T03:23:47;96646.27;;;-1.40;34.97
60267;BME280;46125;61.360;-149.532;2022-10-30T03:26:16;96641.15;;;-1.89;35.01
60267;BME280;46125;61.360;-149.532;2022-10-30T03:28:45;96643.06;;;-1.37;33.19
60267;BME280;46125;61.360;-149.532;2022-10-30T03:31:16;96645.73;;;-1.95;33.62
60267;BME280;46125;61.360;-149.532;2022-10-30T03:33:46;96647.98;;;-3.70;36.17
60267;BME280;46125;61.360;-149.532;2022-10-30T03:36:15;96647.30;;;-1.86;35.10
60267;BME280;46125;61.360;-149.532;2022-10-30T03:38:43;96652.35;;;-1.28;34.38
60267;BME280;46125;61.360;-149.532;2022-10-30T03:41:12;96657.78;;;-1.14;33.99
60267;BME280;46125;61.360;-149.532;2022-10-30T03:43:41;96655.62;;;-1.03;34.38
60267;BME280;46125;61.360;-149.532;2022-10-30T03:46:09;96655.50;;;-0.87;34.18
60267;BME280;46125;61.360;-149.532;2022-10-30T03:48:39;96653.42;;;-0.79;33.98
60267;BME280;46125;61.360;-149.532;2022-10-30T03:51:08;96655.04;;;-0.91;34.16
60267;BME280;46125;61.360;-149.532;2022-10-30T03:53:38;96651.30;;;-1.06;34.33
60267;BME280;46125;61.360;-149.532;2022-10-30T03:56:09;96658.86;;;-1.24;34.55
60267;BME280;46125;61.360;-149.532;2022-10-30T03:58:38;96656.09;;;-0.81;34.19
60267;BME280;46125;61.360;-149.532;2022-10-30T04:01:08;96653.92;;;-1.02;34.86
60267;BME280;46125;61.360;-149.532;2022-10-30T04:03:37;96658.06;;;-1.08;34.46
60267;BME280;46125;61.360;-149.532;2022-10-30T04:06:05;96657.92;;;-0.87;34.11
60267;BME280;46125;61.360;-149.532;2022-10-30T04:08:34;96655.70;;;-0.78;34.06
60267;BME280;46125;61.360;-149.532;2022-10-30T04:11:04;96659.68;;;-0.94;32.97
60267;BME280;46125;61.360;-149.532;2022-10-30T04:13:32;96661.25;;;-1.01;32.90
60267;BME280;46125;61.360;-149.532;2022-10-30T04:16:00;96662.47;;;-1.14;32.97
60267;BME280;46125;61.360;-149.532;2022-10-30T04:18:29;96667.74;;;-1.48;34.11
60267;BME280;46125;61.360;-149.532;2022-10-30T04:20:59;96673.51;;;-2.75;36.93
60267;BME280;46125;61.360;-149.532;2022-10-30T04:23:28;96671.27;;;-1.82;35.52
60267;BME280;46125;61.360;-149.532;2022-10-30T04:25:59;96672.05;;;-1.57;34.66
60267;BME280;46125;61.360;-149.532;2022-10-30T04:28:28;96672.93;;;-1.36;33.87
60267;BME280;46125;61.360;-149.532;2022-10-30T04:30:56;96678.34;;;-1.76;34.15
60267;BME280;46125;61.360;-149.532;2022-10-30T04:33:25;96674.46;;;-2.62;35.67
60267;BME280;46125;61.360;-149.532;2022-10-30T04:35:55;96670.35;;;-2.05;35.96
60267;BME280;46125;61.360;-149.532;2022-10-30T04:38:23;96670.61;;;-1.98;35.03
60267;BME280;46125;61.360;-149.532;2022-10-30T04:40:52;96674.14;;;-1.90;34.51
60267;BME280;46125;61.360;-149.532;2022-10-30T04:43:20;96678.89;;;-1.58;34.24
60267;BME280;46125;61.360;-149.532;2022-10-30T04:45:49;96680.99;;;-1.56;34.66
60267;BME280;46125;61.360;-149.532;2022-10-30T04:48:18;96682.48;;;-1.69;34.90
60267;BME280;46125;61.360;-149.532;2022-10-30T04:50:47;96684.33;;;-1.74;35.09
60267;BME280;46125;61.360;-149.532;2022-10-30T04:53:17;96683.17;;;-1.69;34.64
60267;BME280;46125;61.360;-149.532;2022-10-30T04:55:47;96684.67;;;-1.76;34.60
60267;BME280;46125;61.360;-149.532;2022-10-30T04:58:20;96685.88;;;-2.25;36.48
60267;BME280;46125;61.360;-149.532;2022-10-30T05:00:49;96686.98;;;-1.61;36.58
60267;BME280;46125;61.360;-149.532;2022-10-30T05:03:19;96685.18;;;-1.81;36.68
60267;BME280;46125;61.360;-149.532;2022-10-30T05:05:56;96682.50;;;-1.74;36.64
60267;BME280;46125;61.360;-149.532;2022-10-30T05:08:25;96682.68;;;-1.81;37.13
60267;BME280;46125;61.360;-149.532;2022-10-30T05:10:58;96682.77;;;-1.84;36.76
60267;BME280;46125;61.360;-149.532;2022-10-30T05:13:27;96683.73;;;-1.73;37.02
60267;BME280;46125;61.360;-149.532;2022-10-30T05:15:56;96689.20;;;-2.07;37.15
60267;BME280;46125;61.360;-149.532;2022-10-30T05:18:24;96694.24;;;-2.04;37.12
60267;BME280;46125;61.360;-149.532;2022-10-30T05:20:53;96697.42;;;-2.28;37.32
60267;BME280;46125;61.360;-149.532;2022-10-30T05:23:22;96697.11;;;-2.55;37.84
60267;BME280;46125;61.360;-149.532;2022-10-30T05:25:50;96699.82;;;-2.83;38.26
60267;BME280;46125;61.360;-149.532;2022-10-30T05:28:19;96704.16;;;-3.15;38.63
60267;BME280;46125;61.360;-149.532;2022-10-30T05:30:52;96709.26;;;-2.56;38.41
60267;BME280;46125;61.360;-149.532;2022-10-30T05:33:22;96703.27;;;-2.36;38.36
60267;BME280;46125;61.360;-149.532;2022-10-30T05:35:50;96701.50;;;-2.67;38.32
60267;BME280;46125;61.360;-149.532;2022-10-30T05:38:19;96704.09;;;-3.80;40.02
60267;BME280;46125;61.360;-149.532;2022-10-30T05:40:48;96708.80;;;-3.08;39.66
60267;BME280;46125;61.360;-149.532;2022-10-30T05:43:17;96709.20;;;-2.95;38.58
60267;BME280;46125;61.360;-149.532;2022-10-30T05:45:48;96711.33;;;-2.71;38.29
60267;BME280;46125;61.360;-149.532;2022-10-30T05:48:16;96718.60;;;-3.44;39.40
60267;BME280;46125;61.360;-149.532;2022-10-30T05:50:46;96720.45;;;-3.80;41.51
60267;BME280;46125;61.360;-149.532;2022-10-30T05:53:15;96724.54;;;-4.63;43.12
60267;BME280;46125;61.360;-149.532;2022-10-30T05:55:43;96723.01;;;-4.50;44.02
60267;BME280;46125;61.360;-149.532;2022-10-30T05:58:13;96724.66;;;-4.48;44.71
60267;BME280;46125;61.360;-149.532;2022-10-30T06:00:44;96725.31;;;-4.18;43.65
60267;BME280;46125;61.360;-149.532;2022-10-30T06:03:13;96726.93;;;-4.02;42.78
60267;BME280;46125;61.360;-149.532;2022-10-30T06:05:44;96730.26;;;-4.85;44.22
60267;BME280;46125;61.360;-149.532;2022-10-30T06:08:13;96734.52;;;-4.72;43.20
60267;BME280;46125;61.360;-149.532;2022-10-30T06:10:42;96734.24;;;-4.51;43.05
60267;BME280;46125;61.360;-149.532;2022-10-30T06:13:11;96737.07;;;-5.58;46.33
60267;BME280;46125;61.360;-149.532;2022-10-30T06:15:40;96738.57;;;-5.35;46.69
60267;BME280;46125;61.360;-149.532;2022-10-30T06:18:10;96738.09;;;-5.68;48.38
60267;BME280;46125;61.360;-149.532;2022-10-30T06:20:39;96737.41;;;-5.69;49.55
60267;BME280;46125;61.360;-149.532;2022-10-30T06:23:09;96733.05;;;-5.48;50.00
60267;BME280;46125;61.360;-149.532;2022-10-30T06:25:38;96734.18;;;-5.67;50.86
60267;BME280;46125;61.360;-149.532;2022-10-30T06:28:06;96735.48;;;-5.34;50.70
60267;BME280;46125;61.360;-149.532;2022-10-30T06:30:37;96741.27;;;-5.06;49.80
60267;BME280;46125;61.360;-149.532;2022-10-30T06:33:06;96742.56;;;-5.32;49.85
60267;BME280;46125;61.360;-149.532;2022-10-30T06:35:35;96748.00;;;-5.08;50.05
60267;BME280;46125;61.360;-149.532;2022-10-30T06:38:03;96748.70;;;-5.65;51.98
60267;BME280;46125;61.360;-149.532;2022-10-30T06:40:32;96754.06;;;-5.33;52.51
60267;BME280;46125;61.360;-149.532;2022-10-30T06:43:01;96755.19;;;-4.87;51.92
60267;BME280;46125;61.360;-149.532;2022-10-30T06:45:30;96756.06;;;-5.62;53.29
60267;BME280;46125;61.360;-149.532;2022-10-30T06:47:59;96760.76;;;-5.45;53.24
60267;BME280;46125;61.360;-149.532;2022-10-30T06:50:28;96763.91;;;-5.17;52.99
60267;BME280;46125;61.360;-149.532;2022-10-30T06:52:56;96769.93;;;-5.33;53.29
60267;BME280;46125;61.360;-149.532;2022-10-30T06:55:30;96768.68;;;-5.27;53.18
60267;BME280;46125;61.360;-149.532;2022-10-30T06:57:59;96775.98;;;-4.71;52.28
60267;BME280;46125;61.360;-149.532;2022-10-30T07:00:28;96775.94;;;-4.71;52.47
60267;BME280;46125;61.360;-149.532;2022-10-30T07:02:58;96775.36;;;-4.61;51.75
60267;BME280;46125;61.360;-149.532;2022-10-30T07:05:27;96775.34;;;-4.63;51.63
60267;BME280;46125;61.360;-149.532;2022-10-30T07:07:56;96776.87;;;-4.36;51.10
60267;BME280;46125;61.360;-149.532;2022-10-30T07:10:25;96781.16;;;-4.53;51.59
60267;BME280;46125;61.360;-149.532;2022-10-30T07:12:54;96788.31;;;-5.06;52.59
60267;BME280;46125;61.360;-149.532;2022-10-30T07:15:23;96788.65;;;-4.43;51.48
60267;BME280;46125;61.360;-149.532;2022-10-30T07:17:53;96790.26;;;-4.30;50.75
60267;BME280;46125;61.360;-149.532;2022-10-30T07:20:22;96797.06;;;-4.33;51.18
60267;BME280;46125;61.360;-149.532;2022-10-30T07:22:51;96797.21;;;-4.00;50.60
60267;BME280;46125;61.360;-149.532;2022-10-30T07:25:20;96801.38;;;-4.61;50.63
60267;BME280;46125;61.360;-149.532;2022-10-30T07:27:51;96798.45;;;-4.19;50.89
60267;BME280;46125;61.360;-149.532;2022-10-30T07:30:22;96806.31;;;-4.53;51.51
60267;BME280;46125;61.360;-149.532;2022-10-30T07:33:00;96809.27;;;-4.67;52.22
60267;BME280;46125;61.360;-149.532;2022-10-30T07:35:29;96813.35;;;-4.56;51.59
60267;BME280;46125;61.360;-149.532;2022-10-30T07:38:02;96817.25;;;-4.56;51.49
60267;BME280;46125;61.360;-149.532;2022-10-30T07:40:30;96818.03;;;-4.31;51.21
60267;BME280;46125;61.360;-149.532;2022-10-30T07:43:00;96821.71;;;-4.77;51.93
60267;BME280;46125;61.360;-149.532;2022-10-30T07:45:29;96827.81;;;-4.39;50.86
60267;BME280;46125;61.360;-149.532;2022-10-30T07:48:06;96831.16;;;-4.84;51.78
60267;BME280;46125;61.360;-149.532;2022-10-30T07:50:34;96827.65;;;-4.13;50.55
60267;BME280;46125;61.360;-149.532;2022-10-30T07:53:03;96825.26;;;-4.18;49.91
60267;BME280;46125;61.360;-149.532;2022-10-30T07:55:37;96831.49;;;-4.39;51.11
60267;BME280;46125;61.360;-149.532;2022-10-30T07:58:06;96833.69;;;-4.31;50.86
60267;BME280;46125;61.360;-149.532;2022-10-30T08:00:35;96832.43;;;-4.18;50.46
60267;BME280;46125;61.360;-149.532;2022-10-30T08:03:04;96834.54;;;-4.05;50.81
60267;BME280;46125;61.360;-149.532;2022-10-30T08:05:33;96837.25;;;-3.97;50.02
60267;BME280;46125;61.360;-149.532;2022-10-30T08:08:01;96844.04;;;-4.08;50.26
60267;BME280;46125;61.360;-149.532;2022-10-30T08:10:30;96847.48;;;-3.91;49.78
60267;BME280;46125;61.360;-149.532;2022-10-30T08:12:58;96846.81;;;-3.57;49.07
60267;BME280;46125;61.360;-149.532;2022-10-30T08:15:27;96846.91;;;-3.68;48.12
60267;BME280;46125;61.360;-149.532;2022-10-30T08:17:56;96848.71;;;-3.66;48.38
60267;BME280;46125;61.360;-149.532;2022-10-30T08:20:25;96851.91;;;-3.53;47.98
60267;BME280;46125;61.360;-149.532;2022-10-30T08:22:54;96852.68;;;-2.88;46.55
60267;BME280;46125;61.360;-149.532;2022-10-30T08:25:24;96856.70;;;-3.12;46.81
60267;BME280;46125;61.360;-149.532;2022-10-30T08:27:54;96855.64;;;-3.16;46.28
60267;BME280;46125;61.360;-149.532;2022-10-30T08:30:24;96860.33;;;-3.39;47.29
60267;BME280;46125;61.360;-149.532;2022-10-30T08:32:56;96860.14;;;-3.41;46.80
60267;BME280;46125;61.360;-149.532;2022-10-30T08:35:24;96863.14;;;-4.06;47.69
60267;BME280;46125;61.360;-149.532;2022-10-30T08:37:54;96864.57;;;-3.30;46.71
60267;BME280;46125;61.360;-149.532;2022-10-30T08:40:23;96868.32;;;-3.19;46.63
60267;BME280;46125;61.360;-149.532;2022-10-30T08:42:53;96871.35;;;-3.91;47.70
60267;BME280;46125;61.360;-149.532;2022-10-30T08:45:24;96878.35;;;-4.14;49.85
60267;BME280;46125;61.360;-149.532;2022-10-30T08:47:56;96875.52;;;-3.93;48.38
60267;BME280;46125;61.360;-149.532;2022-10-30T08:50:25;96876.69;;;-3.95;48.56
60267;BME280;46125;61.360;-149.532;2022-10-30T08:52:54;96879.68;;;-4.40;50.68
60267;BME280;46125;61.360;-149.532;2022-10-30T08:55:23;96881.11;;;-3.82;49.67
60267;BME280;46125;61.360;-149.532;2022-10-30T08:57:52;96881.03;;;-4.18;49.44
60267;BME280;46125;61.360;-149.532;2022-10-30T09:00:21;96879.64;;;-3.51;48.52
60267;BME280;46125;61.360;-149.532;2022-10-30T09:02:52;96880.58;;;-3.77;49.17
60267;BME280;46125;61.360;-149.532;2022-10-30T09:05:21;96879.04;;;-3.57;47.94
60267;BME280;46125;61.360;-149.532;2022-10-30T09:07:55;96880.76;;;-3.71;48.42
60267;BME280;46125;61.360;-149.532;2022-10-30T09:10:24;96887.20;;;-3.27;47.84
60267;BME280;46125;61.360;-149.532;2022-10-30T09:12:54;96883.89;;;-2.68;47.11
60267;BME280;46125;61.360;-149.532;2022-10-30T09:15:23;96889.02;;;-3.05;46.49
60267;BME280;46125;61.360;-149.532;2022-10-30T09:17:57;96890.86;;;-2.69;46.03
60267;BME280;46125;61.360;-149.532;2022-10-30T09:20:26;96892.86;;;-2.66;45.74
60267;BME280;46125;61.360;-149.532;2022-10-30T09:22:55;96893.76;;;-2.11;44.72
60267;BME280;46125;61.360;-149.532;2022-10-30T09:25:24;96897.20;;;-2.37;44.65
60267;BME280;46125;61.360;-149.532;2022-10-30T09:27:52;96897.15;;;-2.44;44.28
60267;BME280;46125;61.360;-149.532;2022-10-30T09:30:21;96899.83;;;-2.28;44.75
60267;BME280;46125;61.360;-149.532;2022-10-30T09:32:54;96901.05;;;-2.03;43.89
60267;BME280;46125;61.360;-149.532;2022-10-30T09:35:23;96903.77;;;-2.18;44.10
60267;BME280;46125;61.360;-149.532;2022-10-30T09:37:51;96906.27;;;-2.60;44.91
60267;BME280;46125;61.360;-149.532;2022-10-30T09:40:26;96911.93;;;-3.14;46.30
60267;BME280;46125;61.360;-149.532;2022-10-30T09:43:02;96913.26;;;-3.59;46.33
60267;BME280;46125;61.360;-149.532;2022-10-30T09:45:53;96918.10;;;-4.38;49.48
60267;BME280;46125;61.360;-149.532;2022-10-30T09:48:35;96920.09;;;-3.90;48.11
60267;BME280;46125;61.360;-149.532;2022-10-30T09:51:19;96917.85;;;-3.90;48.61
60267;BME280;46125;61.360;-149.532;2022-10-30T09:53:59;96917.45;;;-4.41;50.77
60267;BME280;46125;61.360;-149.532;2022-10-30T09:56:33;96919.27;;;-3.72;49.89
60267;BME280;46125;61.360;-149.532;2022-10-30T09:59:13;96925.24;;;-4.48;52.68
60267;BME280;46125;61.360;-149.532;2022-10-30T10:01:48;96925.68;;;-3.62;50.83
60267;BME280;46125;61.360;-149.532;2022-10-30T10:04:24;96925.00;;;-3.32;49.93
60267;BME280;46125;61.360;-149.532;2022-10-30T10:06:56;96922.57;;;-3.50;49.34
60267;BME280;46125;61.360;-149.532;2022-10-30T10:09:30;96922.64;;;-3.09;49.26
60267;BME280;46125;61.360;-149.532;2022-10-30T10:12:05;96928.18;;;-3.56;51.62
60267;BME280;46125;61.360;-149.532;2022-10-30T10:14:39;96930.02;;;-3.52;50.74
60267;BME280;46125;61.360;-149.532;2022-10-30T10:17:22;96932.76;;;-3.62;50.96
60267;BME280;46125;61.360;-149.532;2022-10-30T10:19:57;96937.42;;;-3.92;51.85
60267;BME280;46125;61.360;-149.532;2022-10-30T10:22:28;96931.30;;;-3.28;50.31
60267;BME280;46125;61.360;-149.532;2022-10-30T10:24:58;96930.44;;;-3.08;50.05
60267;BME280;46125;61.360;-149.532;2022-10-30T10:27:40;96932.11;;;-3.80;51.73
60267;BME280;46125;61.360;-149.532;2022-10-30T10:30:16;96930.19;;;-3.21;51.21
60267;BME280;46125;61.360;-149.532;2022-10-30T10:33:05;96934.38;;;-3.21;50.67
60267;BME280;46125;61.360;-149.532;2022-10-30T10:35:53;96939.20;;;-3.81;52.65
60267;BME280;46125;61.360;-149.532;2022-10-30T10:38:37;96936.75;;;-3.14;50.91
60267;BME280;46125;61.360;-149.532;2022-10-30T10:41:12;96936.71;;;-3.30;50.32
60267;BME280;46125;61.360;-149.532;2022-10-30T10:43:57;96940.80;;;-3.04;49.46
60267;BME280;46125;61.360;-149.532;2022-10-30T10:46:43;96939.00;;;-2.76;49.14
60267;BME280;46125;61.360;-149.532;2022-10-30T10:49:26;96939.62;;;-2.99;49.30
60267;BME280;46125;61.360;-149.532;2022-10-30T10:51:59;96941.70;;;-2.89;48.27
60267;BME280;46125;61.360;-149.532;2022-10-30T10:54:33;96942.32;;;-3.41;50.57
60267;BME280;46125;61.360;-149.532;2022-10-30T10:57:04;96947.72;;;-2.86;48.89
60267;BME280;46125;61.360;-149.532;2022-10-30T10:59:36;96949.67;;;-2.31;48.04
60267;BME280;46125;61.360;-149.532;2022-10-30T11:02:23;96951.44;;;-2.30;47.56
60267;BME280;46125;61.360;-149.532;2022-10-30T11:05:03;96954.02;;;-2.08;47.26
60267;BME280;46125;61.360;-149.532;2022-10-30T11:07:37;96958.69;;;-1.87;46.25
60267;BME280;46125;61.360;-149.532;2022-10-30T11:10:13;96959.55;;;-1.71;45.77
60267;BME280;46125;61.360;-149.532;2022-10-30T11:12:42;96963.39;;;-1.82;45.80
60267;BME280;46125;61.360;-149.532;2022-10-30T11:15:52;96961.48;;;-1.53;45.62
60267;BME280;46125;61.360;-149.532;2022-10-30T11:18:24;96962.09;;;-1.42;45.31
60267;BME280;46125;61.360;-149.532;2022-10-30T11:20:58;96957.88;;;-1.76;44.60
60267;BME280;46125;61.360;-149.532;2022-10-30T11:23:38;96959.58;;;-2.00;45.86
60267;BME280;46125;61.360;-149.532;2022-10-30T11:26:40;96963.48;;;-1.94;45.68
60267;BME280;46125;61.360;-149.532;2022-10-30T11:29:13;96967.35;;;-2.21;46.14
60267;BME280;46125;61.360;-149.532;2022-10-30T11:31:42;96968.13;;;-2.40;45.98
60267;BME280;46125;61.360;-149.532;2022-10-30T11:34:32;96968.45;;;-2.29;46.29
60267;BME280;46125;61.360;-149.532;2022-10-30T11:37:01;96972.55;;;-2.00;45.74
60267;BME280;46125;61.360;-149.532;2022-10-30T11:39:31;96973.81;;;-1.74;45.23
60267;BME280;46125;61.360;-149.532;2022-10-30T11:42:03;96975.64;;;-2.32;45.51
60267;BME280;46125;61.360;-149.532;2022-10-30T11:44:35;96978.04;;;-2.23;45.52
60267;BME280;46125;61.360;-149.532;2022-10-30T11:47:05;96985.92;;;-1.78;45.64
60267;BME280;46125;61.360;-149.532;2022-10-30T11:49:42;96983.14;;;-1.82;45.55
60267;BME280;46125;61.360;-149.532;2022-10-30T11:52:14;96984.50;;;-2.44;45.79
60267;BME280;46125;61.360;-149.532;2022-10-30T11:54:47;96987.66;;;-2.87;46.45
60267;BME280;46125;61.360;-149.532;2022-10-30T11:57:21;96988.43;;;-2.62;45.51
60267;BME280;46125;61.360;-149.532;2022-10-30T11:59:53;96991.17;;;-2.23;45.33
60267;BME280;46125;61.360;-149.532;2022-10-30T12:02:25;96990.28;;;-2.68;45.79
60267;BME280;46125;61.360;-149.532;2022-10-30T12:04:57;96996.38;;;-2.44;45.81
60267;BME280;46125;61.360;-149.532;2022-10-30T12:07:30;97000.28;;;-2.79;45.73
60267;BME280;46125;61.360;-149.532;2022-10-30T12:09:59;97000.78;;;-2.79;46.28
60267;BME280;46125;61.360;-149.532;2022-10-30T12:12:30;97000.96;;;-2.49;45.58
60267;BME280;46125;61.360;-149.532;2022-10-30T12:15:13;97006.51;;;-3.25;46.50
60267;BME280;46125;61.360;-149.532;2022-10-30T12:17:51;97007.82;;;-3.40;46.54
60267;BME280;46125;61.360;-149.532;2022-10-30T12:20:20;97013.90;;;-3.76;47.27
60267;BME280;46125;61.360;-149.532;2022-10-30T12:22:49;97016.69;;;-3.63;46.90
60267;BME280;46125;61.360;-149.532;2022-10-30T12:25:23;97021.06;;;-4.25;48.72
60267;BME280;46125;61.360;-149.532;2022-10-30T12:27:59;97019.24;;;-4.45;48.58
60267;BME280;46125;61.360;-149.532;2022-10-30T12:30:36;97023.94;;;-4.52;48.82
60267;BME280;46125;61.360;-149.532;2022-10-30T12:33:13;97024.81;;;-4.28;48.21
60267;BME280;46125;61.360;-149.532;2022-10-30T12:35:47;97021.36;;;-4.27;47.81
60267;BME280;46125;61.360;-149.532;2022-10-30T12:38:22;97026.57;;;-4.47;47.77
60267;BME280;46125;61.360;-149.532;2022-10-30T12:41:03;97029.20;;;-4.59;48.16
60267;BME280;46125;61.360;-149.532;2022-10-30T12:43:35;97032.17;;;-4.26;48.57
60267;BME280;46125;61.360;-149.532;2022-10-30T12:46:19;97037.72;;;-4.17;47.81
60267;BME280;46125;61.360;-149.532;2022-10-30T12:48:51;97037.13;;;-3.66;46.91
60267;BME280;46125;61.360;-149.532;2022-10-30T12:51:28;97038.19;;;-4.52;48.06
60267;BME280;46125;61.360;-149.532;2022-10-30T12:54:03;97042.30;;;-5.03;48.96